Main page
METAR-TAF:

METAR-TAF

Airports :

Lyon–Bron Airport

Lyon, France

latitude: 45-43N, longitude: 004-57E, elevation: 200 m

Current weather observation

The report was made 41 minutes ago, at 21:00 UTC
Wind 2 kt from the South
Temperature 13°C
Humidity 77%
Pressure 1016 hPa
Visibility 10 km or more
no clouds below 1500 m and no cumulonimbus

METAR: LFLY 172100Z AUTO 19002KT CAVOK 13/09 Q1016 NOSIG

Time: 23:41 (21:41 UTC)

Forecast

The report was made 4 hours and 41 minutes ago, at 17:00 UTC
Forecast valid from 17 at 18 UTC to 18 at 18 UTC
Wind 6 kt from the North
Visibility 10 km or more
no clouds below 1500 m and no cumulonimbus
Temporary
from 17 at 20 UTC to 18 at 10 UTC
Wind 2 kt from variable directions

TAF: LFLY 171700Z 1718/1818 36006KT CAVOK TEMPO 1720/1810 VRB02KT

Weather observations and forecasts of more than 4000 airports (METAR and TAF reports).

The available stations are represented by yellow and red dots on the map.

Hover mouse over dot to see the name of the station.

Then click to see weather observations and forecasts.

To change the map : click on the green buttons with a black cross to zoom in, on the green button with a dash to zoom out, or on the green arrows for adjacent maps.


METAR-TAF: